createdAt,value
2023-02-11T00:00:40.562Z,26.43
2023-02-11T00:03:08.881Z,31.40
2023-02-11T00:05:36.775Z,31.47
2023-02-11T00:08:05.022Z,28.87
2023-02-11T00:10:32.931Z,28.53
2023-02-11T00:13:00.858Z,28.27
2023-02-11T00:15:28.762Z,28.40
2023-02-11T00:17:58.006Z,26.63
2023-02-11T00:20:25.941Z,33.40
2023-02-11T00:22:53.855Z,26.73
2023-02-11T00:25:21.850Z,27.93
2023-02-11T00:27:49.765Z,29.97
2023-02-11T00:30:17.860Z,27.27
2023-02-11T00:32:45.866Z,32.10
2023-02-11T00:35:15.194Z,26.37
2023-02-11T00:37:43.099Z,31.50
2023-02-11T00:40:12.322Z,29.20
2023-02-11T00:42:40.812Z,27.20
2023-02-11T00:45:09.874Z,27.20
2023-02-11T00:47:37.793Z,34.20
2023-02-11T00:50:07.638Z,28.70
2023-02-11T00:52:36.934Z,25.73
2023-02-11T00:55:05.055Z,36.13
2023-02-11T00:57:32.944Z,27.13
2023-02-11T01:00:00.882Z,29.57
2023-02-11T01:02:28.845Z,29.67
2023-02-11T01:04:56.788Z,28.73
2023-02-11T01:07:24.704Z,31.13
2023-02-11T01:09:54.109Z,34.07
2023-02-11T01:12:22.376Z,36.27
2023-02-11T01:14:50.327Z,31.10
2023-02-11T01:17:18.256Z,33.63
2023-02-11T01:19:46.252Z,28.87
2023-02-11T01:22:14.303Z,32.37
2023-02-11T01:24:42.247Z,32.67
2023-02-11T01:27:11.539Z,31.00
2023-02-11T01:29:39.440Z,30.87
2023-02-11T01:32:07.384Z,31.17
2023-02-11T01:34:35.312Z,29.07
2023-02-11T01:37:03.219Z,26.23
2023-02-11T01:39:34.150Z,31.67
2023-02-11T01:42:02.632Z,33.33
2023-02-11T01:44:33.480Z,33.90
2023-02-11T01:47:01.767Z,23.57
2023-02-11T01:49:32.778Z,33.50
2023-02-11T01:52:03.372Z,31.33
2023-02-11T01:54:51.536Z,36.23
2023-02-11T01:57:25.018Z,32.60
2023-02-11T02:00:01.379Z,32.87
2023-02-11T02:02:34.372Z,32.93
2023-02-11T02:05:07.300Z,28.43
2023-02-11T02:07:38.440Z,28.47
2023-02-11T02:10:11.329Z,32.57
2023-02-11T02:12:39.220Z,29.60
2023-02-11T02:15:20.656Z,23.57
2023-02-11T02:17:55.760Z,29.00
2023-02-11T02:20:56.908Z,26.73
2023-02-11T02:23:38.533Z,29.63
2023-02-11T02:26:27.457Z,26.37
2023-02-11T02:29:30.932Z,27.70
2023-02-11T02:32:22.699Z,23.10
2023-02-11T02:34:52.683Z,29.93
2023-02-11T02:37:24.688Z,28.60
2023-02-11T02:39:52.588Z,28.93
2023-02-11T02:42:21.664Z,34.07
2023-02-11T02:44:50.372Z,23.17
2023-02-11T02:47:18.272Z,30.10
2023-02-11T02:49:47.561Z,31.97
2023-02-11T02:52:30.934Z,26.90
2023-02-11T02:55:13.527Z,21.33
2023-02-11T02:57:53.808Z,28.43
2023-02-11T03:00:25.783Z,26.10
2023-02-11T03:03:04.456Z,25.03
2023-02-11T03:05:41.140Z,21.90
2023-02-11T03:08:11.517Z,20.63
2023-02-11T03:10:41.901Z,18.30
2023-02-11T03:13:10.362Z,23.50
2023-02-11T03:15:40.641Z,27.33
2023-02-11T03:18:11.250Z,25.33
2023-02-11T03:20:42.714Z,28.00
2023-02-11T03:23:14.889Z,24.83
2023-02-11T03:25:47.326Z,23.33
2023-02-11T03:28:19.161Z,20.90
2023-02-11T03:30:51.489Z,19.23
2023-02-11T03:33:22.825Z,23.33
2023-02-11T03:35:54.767Z,21.00
2023-02-11T03:38:24.531Z,19.37
2023-02-11T03:40:52.774Z,27.33
2023-02-11T03:43:23.463Z,18.63
2023-02-11T03:45:53.404Z,19.97
2023-02-11T03:48:24.680Z,20.57
2023-02-11T03:50:55.246Z,19.40
2023-02-11T03:53:24.351Z,27.43
2023-02-11T03:55:53.704Z,20.93
2023-02-11T03:58:21.607Z,24.70
2023-02-11T04:00:50.435Z,20.20
2023-02-11T04:03:19.141Z,20.23
2023-02-11T04:05:47.206Z,31.83
2023-02-11T04:08:16.678Z,24.07
2023-02-11T04:10:44.581Z,22.50
2023-02-11T04:13:12.512Z,23.20
2023-02-11T04:15:40.399Z,26.97
2023-02-11T04:18:08.356Z,21.83
2023-02-11T04:20:36.247Z,26.23
2023-02-11T04:23:04.221Z,22.83
2023-02-11T04:25:33.513Z,21.20
2023-02-11T04:28:01.438Z,22.03
2023-02-11T04:30:29.397Z,28.23
2023-02-11T04:32:57.291Z,17.27
2023-02-11T04:35:25.190Z,23.07
2023-02-11T04:37:53.111Z,19.60
2023-02-11T04:40:21.206Z,20.47
2023-02-11T04:42:50.483Z,18.97
2023-02-11T04:45:18.413Z,17.23
2023-02-11T04:47:46.284Z,25.83
2023-02-11T04:50:14.198Z,20.17
2023-02-11T04:52:42.108Z,16.23
2023-02-11T04:55:10.046Z,18.17
2023-02-11T04:57:37.965Z,17.97
2023-02-11T05:00:09.950Z,23.57
2023-02-11T05:02:37.875Z,20.97
2023-02-11T05:05:06.572Z,18.47
2023-02-11T05:07:34.613Z,20.43
2023-02-11T05:10:02.530Z,20.00
2023-02-11T05:12:30.456Z,18.00
2023-02-11T05:14:58.344Z,21.13
2023-02-11T05:17:27.699Z,20.67
2023-02-11T05:19:55.599Z,21.07
2023-02-11T05:22:23.493Z,18.10
2023-02-11T05:24:51.467Z,19.70
2023-02-11T05:27:19.367Z,23.37
2023-02-11T05:29:47.314Z,20.90
2023-02-11T05:32:15.212Z,19.87
2023-02-11T05:34:44.488Z,17.27
2023-02-11T05:37:12.430Z,22.00
2023-02-11T05:39:40.325Z,15.97
2023-02-11T05:42:08.376Z,18.30
2023-02-11T05:44:36.274Z,19.73
2023-02-11T05:47:04.428Z,17.03
2023-02-11T05:49:32.358Z,14.00
2023-02-11T05:52:01.691Z,19.47
2023-02-11T05:54:29.616Z,15.00
2023-02-11T05:56:57.495Z,14.73
2023-02-11T05:59:25.404Z,15.97
2023-02-11T06:01:53.323Z,23.40
2023-02-11T06:04:21.255Z,15.93
2023-02-11T06:06:49.157Z,19.57
2023-02-11T06:09:18.451Z,17.53
2023-02-11T06:11:46.380Z,21.17
2023-02-11T06:14:14.535Z,21.57
2023-02-11T06:16:42.496Z,17.07
2023-02-11T06:19:10.434Z,15.63
2023-02-11T06:21:43.939Z,14.00
2023-02-11T06:24:13.804Z,19.17
2023-02-11T06:26:43.155Z,19.20
2023-02-11T06:29:11.113Z,15.43
2023-02-11T06:31:39.855Z,21.60
2023-02-11T06:34:08.005Z,16.40
2023-02-11T06:36:36.214Z,15.50
2023-02-11T06:39:04.486Z,14.50
2023-02-11T06:41:32.430Z,14.87
2023-02-11T06:44:01.747Z,15.20
2023-02-11T06:46:29.677Z,21.47
2023-02-11T06:48:57.738Z,15.87
2023-02-11T06:51:25.774Z,17.00
2023-02-11T06:53:53.696Z,19.90
2023-02-11T06:56:22.914Z,19.87
2023-02-11T06:58:53.686Z,17.87
2023-02-11T07:01:23.819Z,19.40
2023-02-11T07:03:52.153Z,18.03
2023-02-11T07:06:21.480Z,18.93
2023-02-11T07:08:49.764Z,18.53
2023-02-11T07:11:20.652Z,15.23
2023-02-11T07:13:49.109Z,18.27
2023-02-11T07:16:18.773Z,18.20
2023-02-11T07:18:49.099Z,18.20
2023-02-11T07:21:19.382Z,20.87
2023-02-11T07:23:48.375Z,11.90
2023-02-11T07:26:18.562Z,21.23
2023-02-11T07:28:46.781Z,16.27
2023-02-11T07:31:16.827Z,16.03
2023-02-11T07:33:45.979Z,14.90
2023-02-11T07:36:16.567Z,19.87
2023-02-11T07:38:44.667Z,22.83
2023-02-11T07:41:14.116Z,19.80
2023-02-11T07:43:42.554Z,12.97
2023-02-11T07:46:12.299Z,18.07
2023-02-11T07:48:40.253Z,19.63
2023-02-11T07:51:09.617Z,22.60
2023-02-11T07:53:39.540Z,21.93
2023-02-11T07:56:08.585Z,21.63
2023-02-11T07:58:36.831Z,19.47
2023-02-11T08:01:06.062Z,20.67
2023-02-11T08:03:34.674Z,16.97
2023-02-11T08:06:04.837Z,16.47
2023-02-11T08:08:32.800Z,15.07
2023-02-11T08:11:07.651Z,20.40
2023-02-11T08:13:35.796Z,16.63
2023-02-11T08:16:04.181Z,18.80
2023-02-11T08:18:32.148Z,18.93
2023-02-11T08:21:05.556Z,16.30
2023-02-11T08:23:33.464Z,19.10
2023-02-11T08:26:04.644Z,16.43
2023-02-11T08:28:32.634Z,19.17
2023-02-11T08:31:06.617Z,18.37
2023-02-11T08:33:34.716Z,15.23
2023-02-11T08:36:03.795Z,16.47
2023-02-11T08:38:31.820Z,20.57
2023-02-11T08:41:01.025Z,17.23
2023-02-11T08:43:30.320Z,16.80
2023-02-11T08:46:00.719Z,21.20
2023-02-11T08:48:30.033Z,15.73
2023-02-11T08:50:58.263Z,21.67
2023-02-11T08:53:26.247Z,26.63
2023-02-11T08:55:55.568Z,19.13
2023-02-11T08:58:23.991Z,14.23
2023-02-11T09:00:53.794Z,21.13
2023-02-11T09:03:22.019Z,20.07
2023-02-11T09:05:53.173Z,21.60
2023-02-11T09:08:21.844Z,20.13
2023-02-11T09:10:50.232Z,16.07
2023-02-11T09:13:18.374Z,17.57
2023-02-11T09:15:46.880Z,16.73
2023-02-11T09:18:16.263Z,18.87
2023-02-11T09:20:44.152Z,20.93
2023-02-11T09:23:12.595Z,24.57
2023-02-11T09:25:41.215Z,22.90
2023-02-11T09:28:09.348Z,28.77
2023-02-11T09:30:37.844Z,25.83
2023-02-11T09:33:05.896Z,21.47
2023-02-11T09:35:35.909Z,20.80
2023-02-11T09:38:03.827Z,19.50
2023-02-11T09:40:31.845Z,16.73
2023-02-11T09:43:05.672Z,18.63
2023-02-11T09:45:33.737Z,18.43
2023-02-11T09:48:05.882Z,18.50
2023-02-11T09:50:37.200Z,28.00
2023-02-11T09:53:07.992Z,21.30
2023-02-11T09:55:39.523Z,22.70
2023-02-11T09:58:13.624Z,21.60
2023-02-11T10:00:44.617Z,14.63
2023-02-11T10:03:28.189Z,25.80
2023-02-11T10:06:21.635Z,22.30
2023-02-11T10:09:00.655Z,18.27
2023-02-11T10:11:34.691Z,15.10
2023-02-11T10:14:12.792Z,17.33
2023-02-11T10:16:53.511Z,18.20
2023-02-11T10:19:32.006Z,20.03
2023-02-11T10:22:09.144Z,16.23
2023-02-11T10:24:37.293Z,17.87
2023-02-11T10:27:13.868Z,13.60
2023-02-11T10:29:44.871Z,21.27
2023-02-11T10:32:17.371Z,15.83
2023-02-11T10:34:45.301Z,19.33
2023-02-11T10:37:14.996Z,17.40
2023-02-11T10:39:42.961Z,20.27
2023-02-11T10:42:13.554Z,16.20
2023-02-11T10:44:45.220Z,17.20
2023-02-11T10:47:15.780Z,17.07
2023-02-11T10:49:44.709Z,17.83
2023-02-11T10:52:25.535Z,13.17
2023-02-11T10:55:06.079Z,22.73
2023-02-11T10:57:38.690Z,19.67
2023-02-11T11:00:22.131Z,17.57
2023-02-11T11:02:55.922Z,19.53
2023-02-11T11:05:29.887Z,14.67
2023-02-11T11:08:01.265Z,27.27
2023-02-11T11:10:43.632Z,19.37
2023-02-11T11:13:32.122Z,15.50
2023-02-11T11:16:25.071Z,14.10
2023-02-11T11:18:54.356Z,13.70
2023-02-11T11:21:24.738Z,19.07
2023-02-11T11:23:59.286Z,16.03
2023-02-11T11:26:28.729Z,16.13
2023-02-11T11:29:02.362Z,18.90
2023-02-11T11:31:33.300Z,15.53
2023-02-11T11:34:03.017Z,18.50
2023-02-11T11:36:36.440Z,12.47
2023-02-11T11:39:18.955Z,13.80
2023-02-11T11:41:54.671Z,17.23
2023-02-11T11:44:31.672Z,10.70
2023-02-11T11:47:20.868Z,15.60
2023-02-11T11:49:52.986Z,18.43
2023-02-11T11:52:30.032Z,17.27
2023-02-11T11:55:03.664Z,14.90
2023-02-11T11:57:32.764Z,8.00
2023-02-11T12:00:00.717Z,23.77
2023-02-11T12:02:52.234Z,16.47
2023-02-11T12:05:24.723Z,13.10
2023-02-11T12:08:02.024Z,11.70
2023-02-11T12:10:50.037Z,12.37
2023-02-11T12:13:27.776Z,12.20
2023-02-11T12:16:01.664Z,25.17
2023-02-11T12:18:47.533Z,15.97
2023-02-11T12:21:36.347Z,12.60
2023-02-11T12:24:23.865Z,8.37
2023-02-11T12:26:58.180Z,13.20
2023-02-11T12:29:33.451Z,7.50
2023-02-11T12:32:11.770Z,13.83
2023-02-11T12:34:59.116Z,14.37
2023-02-11T12:37:36.447Z,11.97
2023-02-11T12:40:14.386Z,10.70
2023-02-11T12:43:09.810Z,11.07
2023-02-11T12:46:02.567Z,12.90
2023-02-11T12:48:41.787Z,15.77
2023-02-11T12:51:19.772Z,11.43
2023-02-11T12:54:05.887Z,8.70
2023-02-11T12:56:39.713Z,7.23
2023-02-11T12:59:14.569Z,8.10
2023-02-11T13:01:43.897Z,4.17
2023-02-11T13:04:18.643Z,3.33
2023-02-11T13:06:50.541Z,5.23
2023-02-11T13:09:21.299Z,9.17
2023-02-11T13:11:52.827Z,6.07
2023-02-11T13:14:27.214Z,5.57
2023-02-11T13:16:55.738Z,10.73
2023-02-11T13:19:27.831Z,6.80
2023-02-11T13:22:06.644Z,11.77
2023-02-11T13:24:41.637Z,11.23
2023-02-11T13:27:16.525Z,15.20
2023-02-11T13:30:20.449Z,10.70
2023-02-11T13:33:06.600Z,9.50
2023-02-11T13:35:35.926Z,8.03
2023-02-11T13:38:05.031Z,11.10
2023-02-11T13:40:35.150Z,8.13
2023-02-11T13:43:05.058Z,7.77
2023-02-11T13:45:38.370Z,15.73
2023-02-11T13:48:08.282Z,10.70
2023-02-11T13:50:39.595Z,12.00
2023-02-11T13:53:08.752Z,12.43
2023-02-11T13:55:36.871Z,11.20
2023-02-11T13:58:18.709Z,12.60
2023-02-11T14:00:50.920Z,15.57
2023-02-11T14:03:45.553Z,12.23
2023-02-11T14:06:37.103Z,13.10
2023-02-11T14:09:39.338Z,19.27
2023-02-11T14:12:32.157Z,10.67
2023-02-11T14:15:21.676Z,11.10
2023-02-11T14:17:52.465Z,5.87
2023-02-11T14:20:36.582Z,16.03
2023-02-11T14:23:05.375Z,18.07
2023-02-11T14:25:33.484Z,11.83
2023-02-11T14:28:05.362Z,11.43
2023-02-11T14:30:47.351Z,13.70
2023-02-11T14:33:42.124Z,9.43
2023-02-11T14:36:21.254Z,14.10
2023-02-11T14:39:00.013Z,11.67
2023-02-11T14:41:29.367Z,9.03
2023-02-11T14:43:59.806Z,13.60
2023-02-11T14:46:30.174Z,14.30
2023-02-11T14:49:01.061Z,16.10
2023-02-11T14:51:31.277Z,18.30
2023-02-11T14:54:00.656Z,11.23
2023-02-11T14:56:31.532Z,20.00
2023-02-11T14:58:59.717Z,10.17
2023-02-11T15:01:31.279Z,13.87
2023-02-11T15:04:01.399Z,15.67
2023-02-11T15:06:31.605Z,12.37
2023-02-11T15:09:01.908Z,15.00
2023-02-11T15:11:32.851Z,18.60
2023-02-11T15:14:08.562Z,21.50
2023-02-11T15:16:42.109Z,9.67
2023-02-11T15:19:21.091Z,11.50
2023-02-11T15:21:50.598Z,13.23
2023-02-11T15:24:27.535Z,14.93
2023-02-11T15:27:00.263Z,14.43
2023-02-11T15:29:29.396Z,15.70
2023-02-11T15:32:08.709Z,12.13
2023-02-11T15:34:38.211Z,8.57
2023-02-11T15:37:06.580Z,9.13
2023-02-11T15:39:36.658Z,11.10
2023-02-11T15:42:18.743Z,9.87
2023-02-11T15:44:50.527Z,12.97
2023-02-11T15:47:22.993Z,11.23
2023-02-11T15:49:52.312Z,17.73
2023-02-11T15:52:25.049Z,11.90
2023-02-11T15:54:53.723Z,22.70
2023-02-11T15:57:23.018Z,12.70
2023-02-11T15:59:52.883Z,12.63
2023-02-11T16:02:29.831Z,23.63
2023-02-11T16:05:00.120Z,16.67
2023-02-11T16:07:46.063Z,20.53
2023-02-11T16:10:25.825Z,9.80
2023-02-11T16:12:55.846Z,15.13
2023-02-11T16:15:50.746Z,11.87
2023-02-11T16:18:37.362Z,18.03
2023-02-11T16:21:09.520Z,15.43
2023-02-11T16:23:39.587Z,12.53
2023-02-11T16:26:11.557Z,23.47
2023-02-11T16:28:39.729Z,13.93
2023-02-11T16:31:07.861Z,17.77
2023-02-11T16:33:35.836Z,22.97
2023-02-11T16:36:13.020Z,13.93
2023-02-11T16:38:41.275Z,9.93
2023-02-11T16:41:11.856Z,14.27
2023-02-11T16:43:40.009Z,13.20
2023-02-11T16:46:09.382Z,16.63
2023-02-11T16:48:37.339Z,16.60
2023-02-11T16:51:05.452Z,15.47
2023-02-11T16:53:34.733Z,10.07
2023-02-11T16:56:02.647Z,18.03
2023-02-11T16:58:30.549Z,17.87
2023-02-11T17:00:58.781Z,17.67
2023-02-11T17:03:29.837Z,16.80
2023-02-11T17:05:58.017Z,22.20
2023-02-11T17:08:25.964Z,16.77
2023-02-11T17:10:55.263Z,21.97
2023-02-11T17:13:23.160Z,14.70
2023-02-11T17:15:51.437Z,8.53
2023-02-11T17:18:19.514Z,14.93
2023-02-11T17:20:47.588Z,13.43
2023-02-11T17:23:15.512Z,18.20
2023-02-11T17:25:43.476Z,12.87
2023-02-11T17:28:13.124Z,9.77
2023-02-11T17:30:43.591Z,9.17
2023-02-11T17:33:11.539Z,12.07
2023-02-11T17:35:41.543Z,13.63
2023-02-11T17:38:09.444Z,15.37
2023-02-11T17:40:37.340Z,12.63
2023-02-11T17:43:05.634Z,15.63
2023-02-11T17:45:37.644Z,21.67
2023-02-11T17:48:05.780Z,12.90
2023-02-11T17:50:37.051Z,19.73
2023-02-11T17:53:05.081Z,18.47
2023-02-11T17:55:34.292Z,11.77
2023-02-11T17:58:02.356Z,17.10
2023-02-11T18:00:30.268Z,11.17
2023-02-11T18:03:02.789Z,14.17
2023-02-11T18:05:35.287Z,11.27
2023-02-11T18:08:03.447Z,13.93
2023-02-11T18:10:31.751Z,16.23
2023-02-11T18:12:59.651Z,20.93
2023-02-11T18:15:27.906Z,8.97
2023-02-11T18:17:56.602Z,15.47
2023-02-11T18:20:25.914Z,17.30
2023-02-11T18:22:53.829Z,15.03
2023-02-11T18:25:21.839Z,9.13
2023-02-11T18:27:49.753Z,12.87
2023-02-11T18:30:20.282Z,13.87
2023-02-11T18:32:48.336Z,8.80
2023-02-11T18:35:16.343Z,7.80
2023-02-11T18:37:45.656Z,10.20
2023-02-11T18:40:14.090Z,8.20
2023-02-11T18:42:42.886Z,15.73
2023-02-11T18:45:13.263Z,9.40
2023-02-11T18:47:41.922Z,18.67
2023-02-11T18:50:13.804Z,11.27
2023-02-11T18:52:41.880Z,11.07
2023-02-11T18:55:11.315Z,8.17
2023-02-11T18:57:39.237Z,11.23
2023-02-11T19:00:10.108Z,15.37
2023-02-11T19:02:38.059Z,23.07
2023-02-11T19:05:06.969Z,12.43
2023-02-11T19:07:34.944Z,16.20
2023-02-11T19:10:02.920Z,15.00
2023-02-11T19:12:33.176Z,11.30
2023-02-11T19:15:01.611Z,19.33
2023-02-11T19:17:29.553Z,18.23
2023-02-11T19:19:57.427Z,15.00
2023-02-11T19:22:25.321Z,9.73
2023-02-11T19:24:53.232Z,11.03
2023-02-11T19:27:21.140Z,12.23
2023-02-11T19:29:50.499Z,17.70
2023-02-11T19:32:18.417Z,13.97
2023-02-11T19:34:46.299Z,10.37
2023-02-11T19:37:14.388Z,17.20
2023-02-11T19:39:42.854Z,10.80
2023-02-11T19:42:36.571Z,17.30
2023-02-11T19:45:07.391Z,17.67
2023-02-11T19:47:35.332Z,19.70
2023-02-11T19:50:03.444Z,15.50
2023-02-11T19:52:31.339Z,24.23
2023-02-11T19:54:59.240Z,17.50
2023-02-11T19:57:27.250Z,16.27
2023-02-11T19:59:56.958Z,18.97
2023-02-11T20:02:26.351Z,11.83
2023-02-11T20:04:54.332Z,10.07
2023-02-11T20:07:22.235Z,13.00
2023-02-11T20:09:50.141Z,22.77
2023-02-11T20:12:18.060Z,16.33
2023-02-11T20:14:45.961Z,15.83
2023-02-11T20:17:13.933Z,24.30
2023-02-11T20:19:43.243Z,18.93
2023-02-11T20:22:11.246Z,20.30
2023-02-11T20:24:39.160Z,13.57
2023-02-11T20:27:08.495Z,15.07
2023-02-11T20:29:36.470Z,20.67
2023-02-11T20:32:04.874Z,18.37
2023-02-11T20:34:33.319Z,15.03
2023-02-11T20:37:04.186Z,16.33
2023-02-11T20:39:32.095Z,19.13
2023-02-11T20:42:00.013Z,16.47
2023-02-11T20:44:28.133Z,24.33
2023-02-11T20:46:56.029Z,20.63
2023-02-11T20:49:25.380Z,16.63
2023-02-11T20:51:53.961Z,12.10
2023-02-11T20:54:24.476Z,12.20
2023-02-11T20:56:53.935Z,11.03
2023-02-11T20:59:22.254Z,15.57
2023-02-11T21:01:53.440Z,11.47
2023-02-11T21:04:23.913Z,20.17
2023-02-11T21:06:54.194Z,12.83
2023-02-11T21:09:25.453Z,13.83
2023-02-11T21:11:54.527Z,21.03
2023-02-11T21:14:23.417Z,16.97
2023-02-11T21:16:52.457Z,19.50
2023-02-11T21:19:20.460Z,21.23
2023-02-11T21:21:48.380Z,21.53
2023-02-11T21:24:16.533Z,17.33
2023-02-11T21:26:45.843Z,13.57
2023-02-11T21:29:13.786Z,13.83
2023-02-11T21:31:41.840Z,21.27
2023-02-11T21:34:11.009Z,16.43
2023-02-11T21:36:38.953Z,24.57
2023-02-11T21:39:47.364Z,12.53
2023-02-11T21:42:16.831Z,17.07
2023-02-11T21:45:10.802Z,21.47
2023-02-11T21:47:38.711Z,15.23
2023-02-11T21:50:07.585Z,14.67
2023-02-11T21:52:35.519Z,27.17
2023-02-11T21:55:03.483Z,19.97
2023-02-11T21:57:32.795Z,20.77
2023-02-11T22:00:00.744Z,22.73
2023-02-11T22:02:28.695Z,19.87
2023-02-11T22:04:56.645Z,21.63
2023-02-11T22:07:25.104Z,17.03
2023-02-11T22:09:54.742Z,14.67
2023-02-11T22:12:22.709Z,14.93
2023-02-11T22:14:52.043Z,15.87
2023-02-11T22:17:20.015Z,21.43
2023-02-11T22:19:47.951Z,13.60
2023-02-11T22:22:18.285Z,14.13
2023-02-11T22:24:46.978Z,14.67
2023-02-11T22:27:14.984Z,13.33
2023-02-11T22:29:42.931Z,12.27
2023-02-11T22:32:12.319Z,11.83
2023-02-11T22:34:40.336Z,14.20
2023-02-11T22:37:08.616Z,10.93
2023-02-11T22:39:36.505Z,14.27
2023-02-11T22:42:04.602Z,18.97
2023-02-11T22:44:32.480Z,13.27
2023-02-11T22:47:00.387Z,10.10
2023-02-11T22:49:32.440Z,21.00
2023-02-11T22:52:00.482Z,15.93
2023-02-11T22:54:28.557Z,19.03
2023-02-11T22:56:56.433Z,14.10
2023-02-11T22:59:24.389Z,15.03
2023-02-11T23:01:52.454Z,10.10
2023-02-11T23:04:20.970Z,13.57
2023-02-11T23:06:50.524Z,8.20
2023-02-11T23:09:18.492Z,14.07
2023-02-11T23:11:46.956Z,8.23
2023-02-11T23:14:14.876Z,6.57
2023-02-11T23:16:42.984Z,9.23
2023-02-11T23:19:12.380Z,7.60
2023-02-11T23:21:41.014Z,11.47
2023-02-11T23:24:14.369Z,7.83
2023-02-11T23:26:43.142Z,7.83
2023-02-11T23:29:11.299Z,10.53
2023-02-11T23:31:43.417Z,12.40
2023-02-11T23:34:11.476Z,5.07
2023-02-11T23:36:39.622Z,18.63
2023-02-11T23:39:07.587Z,8.57
2023-02-11T23:41:36.840Z,8.30
2023-02-11T23:44:04.812Z,8.90
2023-02-11T23:46:32.734Z,9.90
2023-02-11T23:49:00.995Z,9.93
2023-02-11T23:51:28.962Z,8.90
2023-02-11T23:53:57.098Z,5.37
2023-02-11T23:56:26.454Z,7.70
2023-02-11T23:58:58.375Z,5.27
